sensor_id;sensor_type;location;lat;lon;timestamp;temperature;humidity
19437;DHT22;9854;50.968;4.168;2024-01-25T00:02:07;9.80;99.90
19437;DHT22;9854;50.968;4.168;2024-01-25T00:04:32;9.80;99.90
19437;DHT22;9854;50.968;4.168;2024-01-25T00:06:58;9.90;99.90
19437;DHT22;9854;50.968;4.168;2024-01-25T00:09:26;9.90;99.90
19437;DHT22;9854;50.968;4.168;2024-01-25T00:11:52;9.80;99.90
19437;DHT22;9854;50.968;4.168;2024-01-25T00:14:17;9.70;99.90
19437;DHT22;9854;50.968;4.168;2024-01-25T00:16:43;9.70;99.90
19437;DHT22;9854;50.968;4.168;2024-01-25T00:19:08;9.70;99.90
19437;DHT22;9854;50.968;4.168;2024-01-25T00:21:42;9.60;99.90
19437;DHT22;9854;50.968;4.168;2024-01-25T00:24:13;9.60;99.90
19437;DHT22;9854;50.968;4.168;2024-01-25T00:26:39;9.70;99.90
19437;DHT22;9854;50.968;4.168;2024-01-25T00:29:04;9.60;99.90
19437;DHT22;9854;50.968;4.168;2024-01-25T00:31:30;9.70;99.90
19437;DHT22;9854;50.968;4.168;2024-01-25T00:33:57;9.70;99.90
19437;DHT22;9854;50.968;4.168;2024-01-25T00:36:23;9.70;99.90
19437;DHT22;9854;50.968;4.168;2024-01-25T00:38:49;9.70;99.90
19437;DHT22;9854;50.968;4.168;2024-01-25T00:41:18;9.60;99.90
19437;DHT22;9854;50.968;4.168;2024-01-25T00:43:49;9.50;99.90
19437;DHT22;9854;50.968;4.168;2024-01-25T00:46:15;9.50;99.90
19437;DHT22;9854;50.968;4.168;2024-01-25T00:48:41;9.50;99.90
19437;DHT22;9854;50.968;4.168;2024-01-25T00:51:14;9.40;99.90
19437;DHT22;9854;50.968;4.168;2024-01-25T00:53:40;9.60;99.90
19437;DHT22;9854;50.968;4.168;2024-01-25T00:56:06;9.70;99.90
19437;DHT22;9854;50.968;4.168;2024-01-25T00:58:35;9.60;99.90
19437;DHT22;9854;50.968;4.168;2024-01-25T01:01:03;9.40;99.90
19437;DHT22;9854;50.968;4.168;2024-01-25T01:03:29;9.30;99.90
19437;DHT22;9854;50.968;4.168;2024-01-25T01:05:55;9.40;99.90
19437;DHT22;9854;50.968;4.168;2024-01-25T01:08:21;9.20;99.90
19437;DHT22;9854;50.968;4.168;2024-01-25T01:10:46;9.20;99.90
19437;DHT22;9854;50.968;4.168;2024-01-25T01:13:12;9.20;99.90
19437;DHT22;9854;50.968;4.168;2024-01-25T01:15:38;9.20;99.90
19437;DHT22;9854;50.968;4.168;2024-01-25T01:18:03;9.20;99.90
19437;DHT22;9854;50.968;4.168;2024-01-25T01:20:31;9.20;99.90
19437;DHT22;9854;50.968;4.168;2024-01-25T01:22:56;9.10;99.90
19437;DHT22;9854;50.968;4.168;2024-01-25T01:25:22;9.30;99.90
19437;DHT22;9854;50.968;4.168;2024-01-25T01:27:50;9.20;99.90
19437;DHT22;9854;50.968;4.168;2024-01-25T01:30:16;9.20;99.90
19437;DHT22;9854;50.968;4.168;2024-01-25T01:32:41;9.20;99.90
19437;DHT22;9854;50.968;4.168;2024-01-25T01:35:07;9.30;99.90
19437;DHT22;9854;50.968;4.168;2024-01-25T01:37:35;9.20;99.90
19437;DHT22;9854;50.968;4.168;2024-01-25T01:40:00;9.20;99.90
19437;DHT22;9854;50.968;4.168;2024-01-25T01:42:28;9.20;99.90
19437;DHT22;9854;50.968;4.168;2024-01-25T01:44:54;9.20;99.90
19437;DHT22;9854;50.968;4.168;2024-01-25T01:47:22;9.20;99.90
19437;DHT22;9854;50.968;4.168;2024-01-25T01:49:48;9.00;99.90
19437;DHT22;9854;50.968;4.168;2024-01-25T01:52:14;9.00;99.90
19437;DHT22;9854;50.968;4.168;2024-01-25T01:54:40;9.00;99.90
19437;DHT22;9854;50.968;4.168;2024-01-25T01:57:07;9.10;99.90
19437;DHT22;9854;50.968;4.168;2024-01-25T01:59:35;9.00;99.90
19437;DHT22;9854;50.968;4.168;2024-01-25T02:02:01;9.00;99.90
19437;DHT22;9854;50.968;4.168;2024-01-25T02:04:27;9.10;99.90
19437;DHT22;9854;50.968;4.168;2024-01-25T02:06:52;9.20;99.90
19437;DHT22;9854;50.968;4.168;2024-01-25T02:09:21;9.10;99.90
19437;DHT22;9854;50.968;4.168;2024-01-25T02:11:47;9.00;99.90
19437;DHT22;9854;50.968;4.168;2024-01-25T02:14:15;8.90;99.90
19437;DHT22;9854;50.968;4.168;2024-01-25T02:16:41;8.90;99.90
19437;DHT22;9854;50.968;4.168;2024-01-25T02:19:10;8.90;99.90
19437;DHT22;9854;50.968;4.168;2024-01-25T02:21:36;9.00;99.90
19437;DHT22;9854;50.968;4.168;2024-01-25T02:24:04;8.90;99.90
19437;DHT22;9854;50.968;4.168;2024-01-25T02:26:32;8.80;99.90
19437;DHT22;9854;50.968;4.168;2024-01-25T02:28:58;8.80;99.90
19437;DHT22;9854;50.968;4.168;2024-01-25T02:31:26;8.80;99.90
19437;DHT22;9854;50.968;4.168;2024-01-25T02:33:53;8.80;99.90
19437;DHT22;9854;50.968;4.168;2024-01-25T02:36:24;9.00;99.90
19437;DHT22;9854;50.968;4.168;2024-01-25T02:38:50;8.90;99.90
19437;DHT22;9854;50.968;4.168;2024-01-25T02:41:16;8.70;99.90
19437;DHT22;9854;50.968;4.168;2024-01-25T02:43:42;8.60;99.90
19437;DHT22;9854;50.968;4.168;2024-01-25T02:46:08;8.70;99.90
19437;DHT22;9854;50.968;4.168;2024-01-25T02:48:34;8.90;99.90
19437;DHT22;9854;50.968;4.168;2024-01-25T02:51:04;8.90;99.90
19437;DHT22;9854;50.968;4.168;2024-01-25T02:53:30;8.90;99.90
19437;DHT22;9854;50.968;4.168;2024-01-25T02:55:56;8.80;99.90
19437;DHT22;9854;50.968;4.168;2024-01-25T02:58:22;8.70;99.90
19437;DHT22;9854;50.968;4.168;2024-01-25T03:00:47;8.60;99.90
19437;DHT22;9854;50.968;4.168;2024-01-25T03:03:13;8.70;99.90
19437;DHT22;9854;50.968;4.168;2024-01-25T03:05:39;8.70;99.90
19437;DHT22;9854;50.968;4.168;2024-01-25T03:08:05;8.60;99.90
19437;DHT22;9854;50.968;4.168;2024-01-25T03:10:31;8.50;99.90
19437;DHT22;9854;50.968;4.168;2024-01-25T03:12:57;8.50;99.90
19437;DHT22;9854;50.968;4.168;2024-01-25T03:15:22;8.50;99.90
19437;DHT22;9854;50.968;4.168;2024-01-25T03:17:48;8.60;99.90
19437;DHT22;9854;50.968;4.168;2024-01-25T03:20:14;8.60;99.90
19437;DHT22;9854;50.968;4.168;2024-01-25T03:22:39;8.40;99.90
19437;DHT22;9854;50.968;4.168;2024-01-25T03:25:05;8.20;99.90
19437;DHT22;9854;50.968;4.168;2024-01-25T03:27:31;8.10;99.90
19437;DHT22;9854;50.968;4.168;2024-01-25T03:29:56;8.00;99.90
19437;DHT22;9854;50.968;4.168;2024-01-25T03:32:23;8.00;99.90
19437;DHT22;9854;50.968;4.168;2024-01-25T03:34:48;8.00;99.90
19437;DHT22;9854;50.968;4.168;2024-01-25T03:37:14;8.00;99.90
19437;DHT22;9854;50.968;4.168;2024-01-25T03:39:40;8.20;99.90
19437;DHT22;9854;50.968;4.168;2024-01-25T03:42:05;8.20;99.90
19437;DHT22;9854;50.968;4.168;2024-01-25T03:44:31;8.20;99.90
19437;DHT22;9854;50.968;4.168;2024-01-25T03:46:56;8.10;99.90
19437;DHT22;9854;50.968;4.168;2024-01-25T03:49:25;8.10;99.90
19437;DHT22;9854;50.968;4.168;2024-01-25T03:51:50;8.00;99.90
19437;DHT22;9854;50.968;4.168;2024-01-25T03:54:18;8.00;99.90
19437;DHT22;9854;50.968;4.168;2024-01-25T03:56:44;8.10;99.90
19437;DHT22;9854;50.968;4.168;2024-01-25T03:59:11;8.10;99.90
19437;DHT22;9854;50.968;4.168;2024-01-25T04:01:46;8.30;99.90
19437;DHT22;9854;50.968;4.168;2024-01-25T04:04:13;8.20;99.90
19437;DHT22;9854;50.968;4.168;2024-01-25T04:06:44;8.10;99.90
19437;DHT22;9854;50.968;4.168;2024-01-25T04:09:12;8.00;99.90
19437;DHT22;9854;50.968;4.168;2024-01-25T04:11:42;7.80;99.90
19437;DHT22;9854;50.968;4.168;2024-01-25T04:14:08;7.90;99.90
19437;DHT22;9854;50.968;4.168;2024-01-25T04:16:36;7.80;99.90
19437;DHT22;9854;50.968;4.168;2024-01-25T04:19:07;7.90;99.90
19437;DHT22;9854;50.968;4.168;2024-01-25T04:21:33;7.90;99.90
19437;DHT22;9854;50.968;4.168;2024-01-25T04:24:00;8.10;99.90
19437;DHT22;9854;50.968;4.168;2024-01-25T04:26:26;8.30;99.90
19437;DHT22;9854;50.968;4.168;2024-01-25T04:28:54;8.40;99.90
19437;DHT22;9854;50.968;4.168;2024-01-25T04:31:19;8.40;99.90
19437;DHT22;9854;50.968;4.168;2024-01-25T04:33:45;8.60;99.90
19437;DHT22;9854;50.968;4.168;2024-01-25T04:36:13;8.50;99.90
19437;DHT22;9854;50.968;4.168;2024-01-25T04:38:39;8.30;99.90
19437;DHT22;9854;50.968;4.168;2024-01-25T04:41:07;8.10;99.90
19437;DHT22;9854;50.968;4.168;2024-01-25T04:43:36;8.10;99.90
19437;DHT22;9854;50.968;4.168;2024-01-25T04:46:02;7.90;99.90
19437;DHT22;9854;50.968;4.168;2024-01-25T04:48:30;7.80;99.90
19437;DHT22;9854;50.968;4.168;2024-01-25T04:50:59;7.70;99.90
19437;DHT22;9854;50.968;4.168;2024-01-25T04:53:27;7.80;99.90
19437;DHT22;9854;50.968;4.168;2024-01-25T04:55:54;7.80;99.90
19437;DHT22;9854;50.968;4.168;2024-01-25T04:58:20;7.70;99.90
19437;DHT22;9854;50.968;4.168;2024-01-25T05:00:45;7.70;99.90
19437;DHT22;9854;50.968;4.168;2024-01-25T05:03:13;8.00;99.90
19437;DHT22;9854;50.968;4.168;2024-01-25T05:05:39;8.10;99.90
19437;DHT22;9854;50.968;4.168;2024-01-25T05:08:05;8.10;99.90
19437;DHT22;9854;50.968;4.168;2024-01-25T05:10:35;8.00;99.90
19437;DHT22;9854;50.968;4.168;2024-01-25T05:13:01;8.20;99.90
19437;DHT22;9854;50.968;4.168;2024-01-25T05:15:27;8.30;99.90
19437;DHT22;9854;50.968;4.168;2024-01-25T05:17:52;8.00;99.90
19437;DHT22;9854;50.968;4.168;2024-01-25T05:20:20;7.70;99.90
19437;DHT22;9854;50.968;4.168;2024-01-25T05:22:51;7.60;99.90
19437;DHT22;9854;50.968;4.168;2024-01-25T05:25:16;7.40;99.90
19437;DHT22;9854;50.968;4.168;2024-01-25T05:27:42;7.50;99.90
19437;DHT22;9854;50.968;4.168;2024-01-25T05:30:10;7.40;99.90
19437;DHT22;9854;50.968;4.168;2024-01-25T05:32:36;7.40;99.90
19437;DHT22;9854;50.968;4.168;2024-01-25T05:35:01;7.20;99.90
19437;DHT22;9854;50.968;4.168;2024-01-25T05:37:29;7.30;99.90
19437;DHT22;9854;50.968;4.168;2024-01-25T05:39:55;7.40;99.90
19437;DHT22;9854;50.968;4.168;2024-01-25T05:42:21;7.50;99.90
19437;DHT22;9854;50.968;4.168;2024-01-25T05:44:49;7.50;99.90
19437;DHT22;9854;50.968;4.168;2024-01-25T05:47:16;7.70;99.90
19437;DHT22;9854;50.968;4.168;2024-01-25T05:49:41;7.70;99.90
19437;DHT22;9854;50.968;4.168;2024-01-25T05:52:07;7.80;99.90
19437;DHT22;9854;50.968;4.168;2024-01-25T05:54:33;7.70;99.90
19437;DHT22;9854;50.968;4.168;2024-01-25T05:57:01;7.80;99.90
19437;DHT22;9854;50.968;4.168;2024-01-25T05:59:29;7.80;99.90
19437;DHT22;9854;50.968;4.168;2024-01-25T06:01:58;7.70;99.90
19437;DHT22;9854;50.968;4.168;2024-01-25T06:04:23;7.80;99.90
19437;DHT22;9854;50.968;4.168;2024-01-25T06:06:49;8.00;99.90
19437;DHT22;9854;50.968;4.168;2024-01-25T06:09:17;8.10;99.90
19437;DHT22;9854;50.968;4.168;2024-01-25T06:11:47;8.00;99.90
19437;DHT22;9854;50.968;4.168;2024-01-25T06:14:12;8.00;99.90
19437;DHT22;9854;50.968;4.168;2024-01-25T06:16:38;7.80;99.90
19437;DHT22;9854;50.968;4.168;2024-01-25T06:19:04;7.60;99.90
19437;DHT22;9854;50.968;4.168;2024-01-25T06:21:29;7.60;99.90
19437;DHT22;9854;50.968;4.168;2024-01-25T06:23:55;7.90;99.90
19437;DHT22;9854;50.968;4.168;2024-01-25T06:26:21;8.00;99.90
19437;DHT22;9854;50.968;4.168;2024-01-25T06:28:48;8.20;99.90
19437;DHT22;9854;50.968;4.168;2024-01-25T06:31:14;8.20;99.90
19437;DHT22;9854;50.968;4.168;2024-01-25T06:33:42;8.10;99.90
19437;DHT22;9854;50.968;4.168;2024-01-25T06:36:14;8.20;99.90
19437;DHT22;9854;50.968;4.168;2024-01-25T06:38:40;8.10;99.90
19437;DHT22;9854;50.968;4.168;2024-01-25T06:41:06;8.20;99.90
19437;DHT22;9854;50.968;4.168;2024-01-25T06:43:32;8.10;99.90
19437;DHT22;9854;50.968;4.168;2024-01-25T06:46:00;8.10;99.90
19437;DHT22;9854;50.968;4.168;2024-01-25T06:48:26;7.90;99.90
19437;DHT22;9854;50.968;4.168;2024-01-25T06:50:51;7.70;99.90
19437;DHT22;9854;50.968;4.168;2024-01-25T06:53:18;7.60;99.90
19437;DHT22;9854;50.968;4.168;2024-01-25T06:55:44;7.60;99.90
19437;DHT22;9854;50.968;4.168;2024-01-25T06:58:12;7.80;99.90
19437;DHT22;9854;50.968;4.168;2024-01-25T07:00:38;7.80;99.90
19437;DHT22;9854;50.968;4.168;2024-01-25T07:03:05;7.90;99.90
19437;DHT22;9854;50.968;4.168;2024-01-25T07:05:31;8.00;99.90
19437;DHT22;9854;50.968;4.168;2024-01-25T07:07:59;7.90;99.90
19437;DHT22;9854;50.968;4.168;2024-01-25T07:10:25;7.80;99.90
19437;DHT22;9854;50.968;4.168;2024-01-25T07:12:53;7.80;99.90
19437;DHT22;9854;50.968;4.168;2024-01-25T07:15:20;7.80;99.90
19437;DHT22;9854;50.968;4.168;2024-01-25T07:17:45;7.90;99.90
19437;DHT22;9854;50.968;4.168;2024-01-25T07:20:12;8.00;99.90
19437;DHT22;9854;50.968;4.168;2024-01-25T07:22:38;8.00;99.90
19437;DHT22;9854;50.968;4.168;2024-01-25T07:25:04;7.90;99.90
19437;DHT22;9854;50.968;4.168;2024-01-25T07:27:30;7.90;99.90
19437;DHT22;9854;50.968;4.168;2024-01-25T07:29:55;7.90;99.90
19437;DHT22;9854;50.968;4.168;2024-01-25T07:32:21;7.90;99.90
19437;DHT22;9854;50.968;4.168;2024-01-25T07:34:49;8.00;99.90
19437;DHT22;9854;50.968;4.168;2024-01-25T07:37:17;7.90;99.90
19437;DHT22;9854;50.968;4.168;2024-01-25T07:39:49;7.80;99.90
19437;DHT22;9854;50.968;4.168;2024-01-25T07:42:17;7.90;99.90
19437;DHT22;9854;50.968;4.168;2024-01-25T07:44:45;7.90;99.90
19437;DHT22;9854;50.968;4.168;2024-01-25T07:47:11;7.80;99.90
19437;DHT22;9854;50.968;4.168;2024-01-25T07:49:37;7.80;99.90
19437;DHT22;9854;50.968;4.168;2024-01-25T07:52:03;7.40;99.90
19437;DHT22;9854;50.968;4.168;2024-01-25T07:54:31;7.60;99.90
19437;DHT22;9854;50.968;4.168;2024-01-25T07:56:57;7.70;99.90
19437;DHT22;9854;50.968;4.168;2024-01-25T07:59:23;7.80;99.90
19437;DHT22;9854;50.968;4.168;2024-01-25T08:01:49;7.80;99.90
19437;DHT22;9854;50.968;4.168;2024-01-25T08:04:17;7.80;99.90
19437;DHT22;9854;50.968;4.168;2024-01-25T08:06:42;7.70;99.90
19437;DHT22;9854;50.968;4.168;2024-01-25T08:09:08;7.80;99.90
19437;DHT22;9854;50.968;4.168;2024-01-25T08:11:34;7.90;99.90
19437;DHT22;9854;50.968;4.168;2024-01-25T08:14:00;7.80;99.90
19437;DHT22;9854;50.968;4.168;2024-01-25T08:16:26;7.90;99.90
19437;DHT22;9854;50.968;4.168;2024-01-25T08:18:54;8.00;99.90
19437;DHT22;9854;50.968;4.168;2024-01-25T08:21:19;8.00;99.90
19437;DHT22;9854;50.968;4.168;2024-01-25T08:23:45;8.10;99.90
19437;DHT22;9854;50.968;4.168;2024-01-25T08:26:11;8.30;99.90
19437;DHT22;9854;50.968;4.168;2024-01-25T08:28:41;8.30;99.90
19437;DHT22;9854;50.968;4.168;2024-01-25T08:31:08;8.30;99.90
19437;DHT22;9854;50.968;4.168;2024-01-25T08:33:34;8.20;99.90
19437;DHT22;9854;50.968;4.168;2024-01-25T08:36:02;7.90;99.90
19437;DHT22;9854;50.968;4.168;2024-01-25T08:38:31;7.90;99.90
19437;DHT22;9854;50.968;4.168;2024-01-25T08:40:56;7.80;99.90
19437;DHT22;9854;50.968;4.168;2024-01-25T08:43:22;7.90;99.90
19437;DHT22;9854;50.968;4.168;2024-01-25T08:45:52;8.00;99.90
19437;DHT22;9854;50.968;4.168;2024-01-25T08:48:20;8.00;99.90
19437;DHT22;9854;50.968;4.168;2024-01-25T08:50:46;8.10;99.90
19437;DHT22;9854;50.968;4.168;2024-01-25T08:53:18;8.20;99.90
19437;DHT22;9854;50.968;4.168;2024-01-25T08:55:44;8.30;99.90
19437;DHT22;9854;50.968;4.168;2024-01-25T08:58:12;8.40;99.90
19437;DHT22;9854;50.968;4.168;2024-01-25T09:00:38;8.40;99.90
19437;DHT22;9854;50.968;4.168;2024-01-25T09:03:03;8.40;99.90
19437;DHT22;9854;50.968;4.168;2024-01-25T09:05:29;8.50;99.90
19437;DHT22;9854;50.968;4.168;2024-01-25T09:07:59;8.60;99.90
19437;DHT22;9854;50.968;4.168;2024-01-25T09:10:24;8.70;99.90
19437;DHT22;9854;50.968;4.168;2024-01-25T09:12:52;8.60;99.90
19437;DHT22;9854;50.968;4.168;2024-01-25T09:15:18;8.70;99.90
19437;DHT22;9854;50.968;4.168;2024-01-25T09:17:45;8.70;99.90
19437;DHT22;9854;50.968;4.168;2024-01-25T09:20:10;8.90;99.90
19437;DHT22;9854;50.968;4.168;2024-01-25T09:22:36;9.00;99.90
19437;DHT22;9854;50.968;4.168;2024-01-25T09:25:03;9.00;99.90
19437;DHT22;9854;50.968;4.168;2024-01-25T09:27:29;9.00;99.90
19437;DHT22;9854;50.968;4.168;2024-01-25T09:29:57;9.10;99.90
19437;DHT22;9854;50.968;4.168;2024-01-25T09:32:22;9.10;99.90
19437;DHT22;9854;50.968;4.168;2024-01-25T09:34:48;9.20;99.90
19437;DHT22;9854;50.968;4.168;2024-01-25T09:37:14;9.50;99.90
19437;DHT22;9854;50.968;4.168;2024-01-25T09:39:42;9.40;99.90
19437;DHT22;9854;50.968;4.168;2024-01-25T09:42:08;9.60;99.90
19437;DHT22;9854;50.968;4.168;2024-01-25T09:44:42;9.50;99.90
19437;DHT22;9854;50.968;4.168;2024-01-25T09:47:17;9.70;99.90
19437;DHT22;9854;50.968;4.168;2024-01-25T09:49:48;9.50;99.90
19437;DHT22;9854;50.968;4.168;2024-01-25T09:52:14;9.50;99.90
19437;DHT22;9854;50.968;4.168;2024-01-25T09:54:40;9.50;99.90
19437;DHT22;9854;50.968;4.168;2024-01-25T09:57:13;9.30;99.90
19437;DHT22;9854;50.968;4.168;2024-01-25T09:59:39;9.40;99.90
19437;DHT22;9854;50.968;4.168;2024-01-25T10:02:05;9.50;99.90
19437;DHT22;9854;50.968;4.168;2024-01-25T10:04:31;9.70;99.90
19437;DHT22;9854;50.968;4.168;2024-01-25T10:06:56;9.90;99.90
19437;DHT22;9854;50.968;4.168;2024-01-25T10:09:25;9.90;99.90
19437;DHT22;9854;50.968;4.168;2024-01-25T10:11:52;9.80;99.90
19437;DHT22;9854;50.968;4.168;2024-01-25T10:14:18;9.80;99.90
19437;DHT22;9854;50.968;4.168;2024-01-25T10:16:46;9.80;99.90
19437;DHT22;9854;50.968;4.168;2024-01-25T10:19:12;9.70;99.90
19437;DHT22;9854;50.968;4.168;2024-01-25T10:21:38;9.80;99.90
19437;DHT22;9854;50.968;4.168;2024-01-25T10:24:06;9.70;99.90
19437;DHT22;9854;50.968;4.168;2024-01-25T10:26:34;9.70;99.90
19437;DHT22;9854;50.968;4.168;2024-01-25T10:29:00;9.60;99.90
19437;DHT22;9854;50.968;4.168;2024-01-25T10:31:29;9.80;99.90
19437;DHT22;9854;50.968;4.168;2024-01-25T10:33:56;10.00;99.90
19437;DHT22;9854;50.968;4.168;2024-01-25T10:36:26;10.10;99.90
19437;DHT22;9854;50.968;4.168;2024-01-25T10:38:54;10.20;99.90
19437;DHT22;9854;50.968;4.168;2024-01-25T10:41:23;10.40;99.90
19437;DHT22;9854;50.968;4.168;2024-01-25T10:43:50;10.30;99.90
19437;DHT22;9854;50.968;4.168;2024-01-25T10:46:16;10.40;99.90
19437;DHT22;9854;50.968;4.168;2024-01-25T10:48:42;10.40;99.90
19437;DHT22;9854;50.968;4.168;2024-01-25T10:51:11;10.40;99.90
19437;DHT22;9854;50.968;4.168;2024-01-25T10:53:41;10.40;99.90
19437;DHT22;9854;50.968;4.168;2024-01-25T10:56:07;10.40;99.90
19437;DHT22;9854;50.968;4.168;2024-01-25T10:58:33;10.50;99.90
19437;DHT22;9854;50.968;4.168;2024-01-25T11:01:01;10.40;99.90
19437;DHT22;9854;50.968;4.168;2024-01-25T11:03:38;10.50;99.90
19437;DHT22;9854;50.968;4.168;2024-01-25T11:06:08;10.60;99.90
19437;DHT22;9854;50.968;4.168;2024-01-25T11:08:37;10.50;99.90
19437;DHT22;9854;50.968;4.168;2024-01-25T11:11:10;10.60;99.90
19437;DHT22;9854;50.968;4.168;2024-01-25T11:13:39;10.50;99.90
19437;DHT22;9854;50.968;4.168;2024-01-25T11:16:19;10.30;99.90
19437;DHT22;9854;50.968;4.168;2024-01-25T11:18:54;10.20;99.90
19437;DHT22;9854;50.968;4.168;2024-01-25T11:21:28;10.40;99.90
19437;DHT22;9854;50.968;4.168;2024-01-25T11:24:02;10.50;99.90
19437;DHT22;9854;50.968;4.168;2024-01-25T11:26:28;10.80;99.90
19437;DHT22;9854;50.968;4.168;2024-01-25T11:28:53;10.80;99.90
19437;DHT22;9854;50.968;4.168;2024-01-25T11:31:20;10.50;99.90
19437;DHT22;9854;50.968;4.168;2024-01-25T11:33:46;10.60;99.90
19437;DHT22;9854;50.968;4.168;2024-01-25T11:36:12;10.60;99.90
19437;DHT22;9854;50.968;4.168;2024-01-25T11:38:38;10.70;99.90
19437;DHT22;9854;50.968;4.168;2024-01-25T11:41:04;10.70;99.90
19437;DHT22;9854;50.968;4.168;2024-01-25T11:43:32;10.80;99.90
19437;DHT22;9854;50.968;4.168;2024-01-25T11:45:58;10.90;99.90
19437;DHT22;9854;50.968;4.168;2024-01-25T11:48:29;10.70;99.90
19437;DHT22;9854;50.968;4.168;2024-01-25T11:50:54;10.50;99.90
19437;DHT22;9854;50.968;4.168;2024-01-25T11:53:20;10.40;99.90
19437;DHT22;9854;50.968;4.168;2024-01-25T11:55:47;10.40;99.90
19437;DHT22;9854;50.968;4.168;2024-01-25T11:58:12;10.30;99.90
19437;DHT22;9854;50.968;4.168;2024-01-25T12:00:38;10.20;99.90
19437;DHT22;9854;50.968;4.168;2024-01-25T12:03:04;10.30;99.90
19437;DHT22;9854;50.968;4.168;2024-01-25T12:05:32;10.40;99.90
19437;DHT22;9854;50.968;4.168;2024-01-25T12:07:59;10.40;99.90
19437;DHT22;9854;50.968;4.168;2024-01-25T12:10:24;10.40;99.90
19437;DHT22;9854;50.968;4.168;2024-01-25T12:12:51;10.50;99.90
19437;DHT22;9854;50.968;4.168;2024-01-25T12:15:17;10.60;99.90
19437;DHT22;9854;50.968;4.168;2024-01-25T12:17:42;10.70;99.90
19437;DHT22;9854;50.968;4.168;2024-01-25T12:20:10;10.70;99.90
19437;DHT22;9854;50.968;4.168;2024-01-25T12:22:38;10.70;99.90
19437;DHT22;9854;50.968;4.168;2024-01-25T12:25:11;10.70;99.90
19437;DHT22;9854;50.968;4.168;2024-01-25T12:27:39;10.80;99.90
19437;DHT22;9854;50.968;4.168;2024-01-25T12:30:07;10.70;99.90
19437;DHT22;9854;50.968;4.168;2024-01-25T12:32:34;10.70;99.90
19437;DHT22;9854;50.968;4.168;2024-01-25T12:35:01;10.80;99.90
19437;DHT22;9854;50.968;4.168;2024-01-25T12:37:27;10.80;99.90
19437;DHT22;9854;50.968;4.168;2024-01-25T12:39:53;10.60;99.90
19437;DHT22;9854;50.968;4.168;2024-01-25T12:42:20;10.30;99.90
19437;DHT22;9854;50.968;4.168;2024-01-25T12:44:46;10.50;99.90
19437;DHT22;9854;50.968;4.168;2024-01-25T12:47:12;10.60;99.90
19437;DHT22;9854;50.968;4.168;2024-01-25T12:49:41;10.70;99.90
19437;DHT22;9854;50.968;4.168;2024-01-25T12:52:14;10.60;99.90
19437;DHT22;9854;50.968;4.168;2024-01-25T12:54:40;10.60;99.90
19437;DHT22;9854;50.968;4.168;2024-01-25T12:57:06;10.60;99.90
19437;DHT22;9854;50.968;4.168;2024-01-25T12:59:33;10.70;99.90
19437;DHT22;9854;50.968;4.168;2024-01-25T13:01:59;10.80;99.90
19437;DHT22;9854;50.968;4.168;2024-01-25T13:04:25;10.90;99.90
19437;DHT22;9854;50.968;4.168;2024-01-25T13:06:54;11.00;99.90
19437;DHT22;9854;50.968;4.168;2024-01-25T13:09:24;11.10;99.90
19437;DHT22;9854;50.968;4.168;2024-01-25T13:11:50;11.20;99.90
19437;DHT22;9854;50.968;4.168;2024-01-25T13:14:18;11.10;99.90
19437;DHT22;9854;50.968;4.168;2024-01-25T13:16:43;11.20;99.90
19437;DHT22;9854;50.968;4.168;2024-01-25T13:19:09;11.30;99.90
19437;DHT22;9854;50.968;4.168;2024-01-25T13:21:37;11.10;99.90
19437;DHT22;9854;50.968;4.168;2024-01-25T13:24:03;11.10;99.90
19437;DHT22;9854;50.968;4.168;2024-01-25T13:26:28;11.00;99.90
19437;DHT22;9854;50.968;4.168;2024-01-25T13:28:54;11.20;99.90
19437;DHT22;9854;50.968;4.168;2024-01-25T13:31:19;11.30;99.90
19437;DHT22;9854;50.968;4.168;2024-01-25T13:33:47;11.20;99.90
19437;DHT22;9854;50.968;4.168;2024-01-25T13:36:18;11.20;99.90
19437;DHT22;9854;50.968;4.168;2024-01-25T13:38:43;11.00;99.90
19437;DHT22;9854;50.968;4.168;2024-01-25T13:41:11;11.00;99.90
19437;DHT22;9854;50.968;4.168;2024-01-25T13:43:37;11.00;99.90
19437;DHT22;9854;50.968;4.168;2024-01-25T13:46:03;11.10;99.90
19437;DHT22;9854;50.968;4.168;2024-01-25T13:48:28;11.20;99.90
19437;DHT22;9854;50.968;4.168;2024-01-25T13:50:54;10.90;99.90
19437;DHT22;9854;50.968;4.168;2024-01-25T13:53:19;11.10;99.90
19437;DHT22;9854;50.968;4.168;2024-01-25T13:55:45;11.30;99.90
19437;DHT22;9854;50.968;4.168;2024-01-25T13:58:11;11.30;99.90
19437;DHT22;9854;50.968;4.168;2024-01-25T14:00:37;11.40;99.90
19437;DHT22;9854;50.968;4.168;2024-01-25T14:03:02;11.40;99.90
19437;DHT22;9854;50.968;4.168;2024-01-25T14:05:28;11.30;99.90
19437;DHT22;9854;50.968;4.168;2024-01-25T14:07:54;11.30;99.90
19437;DHT22;9854;50.968;4.168;2024-01-25T14:10:19;11.20;99.90
19437;DHT22;9854;50.968;4.168;2024-01-25T14:12:46;11.30;99.90
19437;DHT22;9854;50.968;4.168;2024-01-25T14:15:11;11.40;99.90
19437;DHT22;9854;50.968;4.168;2024-01-25T14:17:39;11.30;99.90
19437;DHT22;9854;50.968;4.168;2024-01-25T14:20:06;11.30;99.90
19437;DHT22;9854;50.968;4.168;2024-01-25T14:22:32;11.40;99.90
19437;DHT22;9854;50.968;4.168;2024-01-25T14:25:00;11.30;99.90
19437;DHT22;9854;50.968;4.168;2024-01-25T14:27:26;11.40;99.90
19437;DHT22;9854;50.968;4.168;2024-01-25T14:29:54;11.30;99.90
19437;DHT22;9854;50.968;4.168;2024-01-25T14:32:20;11.20;99.90
19437;DHT22;9854;50.968;4.168;2024-01-25T14:34:50;11.20;99.90
19437;DHT22;9854;50.968;4.168;2024-01-25T14:37:16;11.20;99.90
19437;DHT22;9854;50.968;4.168;2024-01-25T14:39:41;11.30;99.90
19437;DHT22;9854;50.968;4.168;2024-01-25T14:42:13;11.40;99.90
19437;DHT22;9854;50.968;4.168;2024-01-25T14:44:43;11.40;99.90
19437;DHT22;9854;50.968;4.168;2024-01-25T14:47:09;11.30;99.90
19437;DHT22;9854;50.968;4.168;2024-01-25T14:49:37;11.30;99.90
19437;DHT22;9854;50.968;4.168;2024-01-25T14:52:05;11.20;99.90
19437;DHT22;9854;50.968;4.168;2024-01-25T14:54:30;11.10;99.90
19437;DHT22;9854;50.968;4.168;2024-01-25T14:56:56;11.10;99.90
19437;DHT22;9854;50.968;4.168;2024-01-25T14:59:22;11.30;99.90
19437;DHT22;9854;50.968;4.168;2024-01-25T15:01:50;11.30;99.90
19437;DHT22;9854;50.968;4.168;2024-01-25T15:04:15;11.30;99.90
19437;DHT22;9854;50.968;4.168;2024-01-25T15:06:46;11.20;99.90
19437;DHT22;9854;50.968;4.168;2024-01-25T15:09:14;11.10;99.90
19437;DHT22;9854;50.968;4.168;2024-01-25T15:11:40;11.10;99.90
19437;DHT22;9854;50.968;4.168;2024-01-25T15:14:06;11.10;99.90
19437;DHT22;9854;50.968;4.168;2024-01-25T15:16:34;11.10;99.90
19437;DHT22;9854;50.968;4.168;2024-01-25T15:19:02;11.20;99.90
19437;DHT22;9854;50.968;4.168;2024-01-25T15:21:28;11.30;99.90
19437;DHT22;9854;50.968;4.168;2024-01-25T15:23:54;11.50;99.90
19437;DHT22;9854;50.968;4.168;2024-01-25T15:26:19;11.40;99.90
19437;DHT22;9854;50.968;4.168;2024-01-25T15:28:45;11.30;99.90
19437;DHT22;9854;50.968;4.168;2024-01-25T15:31:11;11.30;99.90
19437;DHT22;9854;50.968;4.168;2024-01-25T15:33:36;11.30;99.90
19437;DHT22;9854;50.968;4.168;2024-01-25T15:36:07;11.30;99.90
19437;DHT22;9854;50.968;4.168;2024-01-25T15:38:32;11.40;99.90
19437;DHT22;9854;50.968;4.168;2024-01-25T15:40:58;11.30;99.90
19437;DHT22;9854;50.968;4.168;2024-01-25T15:43:26;11.30;99.90
19437;DHT22;9854;50.968;4.168;2024-01-25T15:45:52;11.40;99.90
19437;DHT22;9854;50.968;4.168;2024-01-25T15:48:19;11.30;99.90
19437;DHT22;9854;50.968;4.168;2024-01-25T15:50:45;11.20;99.90
19437;DHT22;9854;50.968;4.168;2024-01-25T15:53:13;11.10;99.90
19437;DHT22;9854;50.968;4.168;2024-01-25T15:55:40;11.20;99.90